Kapisillit

KL  EN  DA
ASIAQ
Weather Now GREENLAND SURVEY
Updated [WGT/WGST] Temperature [°C] Wind [m/s] Air pressure [hPa] Relative humidity [%] Precipitation [mm]
Present Wind chill Speed Max
21.01 21:00-12,7-16,01,4 ⇐4,0992630,0
21.01 20:00-11,0-14,31,5 ⇑2,6992600,0
21.01 19:00-10,6-14,41,8 ⇑3,6992600,0
21.01 18:00-10,1-15,63,0 ⇖4,6992510,0
21.01 17:00-9,90,00,8 ⇐2,3992600,0
21.01 16:00-10,0-13,21,5 ⇗4,4992670,0
21.01 15:00-9,6-13,31,8 ⇑4,4992580,0
21.01 14:00-9,3-14,73,0 ⇖6,1992550,0
21.01 13:00-9,4-13,52,0 ⇒4,1992650,0
21.01 12:00-9,1-14,63,2 ⇑6,9992680,0
21.01 11:00-9,6-16,64,7 ⇖6,6992610,0
21.01 10:00-9,4-14,62,8 ⇖5,3992670,0
21.01 09:00-9,4-14,72,9 ⇑5,9992700,0
21.01 08:00-9,2-15,94,3 ⇑6,3992700,0
21.01 07:00-9,1-15,84,3 ⇗7,4992740,0
21.01 06:00-9,4-15,73,9 ⇑6,6991750,1
21.01 05:00-9,4-16,44,6 ⇗7,5991860,0
21.01 04:00-9,2-16,14,7 ⇗7,6990810,1
21.01 03:00-9,4-16,54,8 ⇑9,8990840,0
21.01 02:00-8,9-16,75,9 ⇑9,3990650,0
21.01 01:00-8,6-16,76,5 ⇗12,1989630,0
21.01 00:00-8,3-17,69,0 ⇒12,5988620,0
20.01 23:00-8,1-18,111,0 ⇒13,9987600,0
20.01 22:00-8,0-17,710,0 ⇒12,1986690,0
20.01 21:00-8,2-18,110,6 ⇒13,6986760,1
Position: (64.4325,-50.27175)

[Back]